sensor_id;sensor_type;location;lat;lon;timestamp;P1;durP1;ratioP1;P2;durP2;ratioP2
59271;SDS011;45043;51.068;7.026;2023-12-20T00:00:43;28.50;;;20.10;;
59271;SDS011;45043;51.068;7.026;2023-12-20T00:03:44;32.40;;;22.53;;
59271;SDS011;45043;51.068;7.026;2023-12-20T00:06:46;33.37;;;22.17;;
59271;SDS011;45043;51.068;7.026;2023-12-20T00:09:47;34.63;;;22.37;;
59271;SDS011;45043;51.068;7.026;2023-12-20T00:12:47;33.33;;;21.90;;
59271;SDS011;45043;51.068;7.026;2023-12-20T00:15:48;37.37;;;23.27;;
59271;SDS011;45043;51.068;7.026;2023-12-20T00:18:49;32.13;;;22.83;;
59271;SDS011;45043;51.068;7.026;2023-12-20T00:21:50;39.50;;;23.43;;
59271;SDS011;45043;51.068;7.026;2023-12-20T00:24:51;209.93;;;31.03;;
59271;SDS011;45043;51.068;7.026;2023-12-20T00:27:52;20.43;;;15.27;;
59271;SDS011;45043;51.068;7.026;2023-12-20T00:30:53;15.70;;;12.17;;
59271;SDS011;45043;51.068;7.026;2023-12-20T00:33:54;8.20;;;7.07;;
59271;SDS011;45043;51.068;7.026;2023-12-20T00:36:55;9.60;;;7.47;;
59271;SDS011;45043;51.068;7.026;2023-12-20T00:39:57;11.97;;;7.57;;
59271;SDS011;45043;51.068;7.026;2023-12-20T00:42:59;12.77;;;8.70;;
59271;SDS011;45043;51.068;7.026;2023-12-20T00:45:59;10.40;;;8.60;;
59271;SDS011;45043;51.068;7.026;2023-12-20T00:49:00;8.23;;;7.40;;
59271;SDS011;45043;51.068;7.026;2023-12-20T00:52:01;10.03;;;7.67;;
59271;SDS011;45043;51.068;7.026;2023-12-20T00:55:01;11.00;;;7.90;;
59271;SDS011;45043;51.068;7.026;2023-12-20T00:58:04;9.00;;;7.33;;
59271;SDS011;45043;51.068;7.026;2023-12-20T01:01:05;10.40;;;7.00;;
59271;SDS011;45043;51.068;7.026;2023-12-20T01:04:06;8.70;;;7.33;;
59271;SDS011;45043;51.068;7.026;2023-12-20T01:07:07;12.50;;;7.93;;
59271;SDS011;45043;51.068;7.026;2023-12-20T01:10:08;10.27;;;8.07;;
59271;SDS011;45043;51.068;7.026;2023-12-20T01:13:09;11.63;;;7.87;;
59271;SDS011;45043;51.068;7.026;2023-12-20T01:16:10;13.17;;;8.10;;
59271;SDS011;45043;51.068;7.026;2023-12-20T01:22:49;13.03;;;8.07;;
59271;SDS011;45043;51.068;7.026;2023-12-20T01:25:50;10.33;;;8.20;;
59271;SDS011;45043;51.068;7.026;2023-12-20T01:28:51;12.77;;;8.47;;
59271;SDS011;45043;51.068;7.026;2023-12-20T01:31:52;14.73;;;8.97;;
59271;SDS011;45043;51.068;7.026;2023-12-20T01:34:53;13.97;;;9.20;;
59271;SDS011;45043;51.068;7.026;2023-12-20T01:37:55;12.50;;;9.30;;
59271;SDS011;45043;51.068;7.026;2023-12-20T01:40:57;12.80;;;8.83;;
59271;SDS011;45043;51.068;7.026;2023-12-20T01:43:58;17.57;;;9.90;;
59271;SDS011;45043;51.068;7.026;2023-12-20T01:46:59;14.33;;;10.10;;
59271;SDS011;45043;51.068;7.026;2023-12-20T01:50:01;15.67;;;10.63;;
59271;SDS011;45043;51.068;7.026;2023-12-20T01:53:04;19.20;;;11.07;;
59271;SDS011;45043;51.068;7.026;2023-12-20T01:56:08;15.67;;;11.23;;
59271;SDS011;45043;51.068;7.026;2023-12-20T01:59:11;14.43;;;11.30;;
59271;SDS011;45043;51.068;7.026;2023-12-20T02:02:13;17.10;;;12.13;;
59271;SDS011;45043;51.068;7.026;2023-12-20T02:05:14;17.67;;;11.53;;
59271;SDS011;45043;51.068;7.026;2023-12-20T02:08:16;17.50;;;11.50;;
59271;SDS011;45043;51.068;7.026;2023-12-20T02:11:16;15.53;;;11.80;;
59271;SDS011;45043;51.068;7.026;2023-12-20T02:14:17;13.67;;;10.47;;
59271;SDS011;45043;51.068;7.026;2023-12-20T02:17:17;16.10;;;11.00;;
59271;SDS011;45043;51.068;7.026;2023-12-20T02:20:19;18.47;;;11.20;;
59271;SDS011;45043;51.068;7.026;2023-12-20T02:23:20;15.03;;;10.23;;
59271;SDS011;45043;51.068;7.026;2023-12-20T02:26:22;17.53;;;10.93;;
59271;SDS011;45043;51.068;7.026;2023-12-20T02:29:23;15.27;;;10.60;;
59271;SDS011;45043;51.068;7.026;2023-12-20T02:32:24;17.43;;;10.00;;
59271;SDS011;45043;51.068;7.026;2023-12-20T02:35:28;17.20;;;9.93;;
59271;SDS011;45043;51.068;7.026;2023-12-20T02:38:29;16.73;;;10.43;;
59271;SDS011;45043;51.068;7.026;2023-12-20T02:41:30;20.53;;;10.60;;
59271;SDS011;45043;51.068;7.026;2023-12-20T02:44:31;20.77;;;10.87;;
59271;SDS011;45043;51.068;7.026;2023-12-20T02:47:32;18.63;;;10.67;;
59271;SDS011;45043;51.068;7.026;2023-12-20T02:50:33;16.33;;;9.80;;
59271;SDS011;45043;51.068;7.026;2023-12-20T02:53:34;22.33;;;9.97;;
59271;SDS011;45043;51.068;7.026;2023-12-20T02:56:35;16.30;;;9.17;;
59271;SDS011;45043;51.068;7.026;2023-12-20T02:59:36;15.53;;;8.60;;
59271;SDS011;45043;51.068;7.026;2023-12-20T03:02:37;21.53;;;8.57;;
59271;SDS011;45043;51.068;7.026;2023-12-20T03:05:38;16.77;;;8.60;;
59271;SDS011;45043;51.068;7.026;2023-12-20T03:08:39;16.47;;;8.47;;
59271;SDS011;45043;51.068;7.026;2023-12-20T03:11:41;16.83;;;7.50;;
59271;SDS011;45043;51.068;7.026;2023-12-20T03:14:43;20.83;;;6.73;;
59271;SDS011;45043;51.068;7.026;2023-12-20T03:17:44;17.63;;;7.00;;
59271;SDS011;45043;51.068;7.026;2023-12-20T03:20:45;16.67;;;6.57;;
59271;SDS011;45043;51.068;7.026;2023-12-20T03:23:48;17.33;;;5.73;;
59271;SDS011;45043;51.068;7.026;2023-12-20T03:26:48;15.60;;;6.10;;
59271;SDS011;45043;51.068;7.026;2023-12-20T03:29:49;19.60;;;5.63;;
59271;SDS011;45043;51.068;7.026;2023-12-20T03:32:50;17.33;;;6.17;;
59271;SDS011;45043;51.068;7.026;2023-12-20T03:35:51;28.43;;;6.33;;
59271;SDS011;45043;51.068;7.026;2023-12-20T03:38:52;15.23;;;5.40;;
59271;SDS011;45043;51.068;7.026;2023-12-20T03:41:54;17.67;;;6.57;;
59271;SDS011;45043;51.068;7.026;2023-12-20T03:44:55;17.10;;;6.17;;
59271;SDS011;45043;51.068;7.026;2023-12-20T03:47:56;21.83;;;6.53;;
59271;SDS011;45043;51.068;7.026;2023-12-20T03:50:57;16.30;;;6.50;;
59271;SDS011;45043;51.068;7.026;2023-12-20T03:53:58;18.57;;;6.23;;
59271;SDS011;45043;51.068;7.026;2023-12-20T03:56:59;16.50;;;6.00;;
59271;SDS011;45043;51.068;7.026;2023-12-20T04:00:00;19.77;;;6.20;;
59271;SDS011;45043;51.068;7.026;2023-12-20T04:03:12;18.37;;;6.57;;
59271;SDS011;45043;51.068;7.026;2023-12-20T04:06:19;15.90;;;6.33;;
59271;SDS011;45043;51.068;7.026;2023-12-20T04:09:19;16.67;;;6.07;;
59271;SDS011;45043;51.068;7.026;2023-12-20T04:12:20;15.90;;;6.77;;
59271;SDS011;45043;51.068;7.026;2023-12-20T04:15:21;20.17;;;6.47;;
59271;SDS011;45043;51.068;7.026;2023-12-20T04:18:22;20.23;;;6.43;;
59271;SDS011;45043;51.068;7.026;2023-12-20T04:21:23;16.20;;;5.77;;
59271;SDS011;45043;51.068;7.026;2023-12-20T04:24:24;14.20;;;6.07;;
59271;SDS011;45043;51.068;7.026;2023-12-20T04:27:25;17.67;;;5.30;;
59271;SDS011;45043;51.068;7.026;2023-12-20T04:30:26;21.27;;;6.27;;
59271;SDS011;45043;51.068;7.026;2023-12-20T04:33:26;16.87;;;5.47;;
59271;SDS011;45043;51.068;7.026;2023-12-20T04:36:27;15.63;;;4.60;;
59271;SDS011;45043;51.068;7.026;2023-12-20T04:39:30;20.53;;;6.07;;
59271;SDS011;45043;51.068;7.026;2023-12-20T04:42:31;15.73;;;5.13;;
59271;SDS011;45043;51.068;7.026;2023-12-20T04:45:32;15.80;;;6.20;;
59271;SDS011;45043;51.068;7.026;2023-12-20T04:48:33;16.37;;;5.30;;
59271;SDS011;45043;51.068;7.026;2023-12-20T04:51:33;16.73;;;5.57;;
59271;SDS011;45043;51.068;7.026;2023-12-20T04:54:35;22.23;;;5.93;;
59271;SDS011;45043;51.068;7.026;2023-12-20T04:57:36;17.63;;;6.07;;
59271;SDS011;45043;51.068;7.026;2023-12-20T05:00:37;23.23;;;5.73;;
59271;SDS011;45043;51.068;7.026;2023-12-20T05:03:39;19.77;;;6.13;;
59271;SDS011;45043;51.068;7.026;2023-12-20T05:06:40;16.37;;;6.23;;
59271;SDS011;45043;51.068;7.026;2023-12-20T05:09:40;21.30;;;6.20;;
59271;SDS011;45043;51.068;7.026;2023-12-20T05:12:42;14.30;;;5.93;;
59271;SDS011;45043;51.068;7.026;2023-12-20T05:15:43;18.90;;;6.70;;
59271;SDS011;45043;51.068;7.026;2023-12-20T05:18:45;13.07;;;6.00;;
59271;SDS011;45043;51.068;7.026;2023-12-20T05:21:47;20.47;;;6.53;;
59271;SDS011;45043;51.068;7.026;2023-12-20T05:24:48;16.37;;;5.97;;
59271;SDS011;45043;51.068;7.026;2023-12-20T05:27:50;14.20;;;5.13;;
59271;SDS011;45043;51.068;7.026;2023-12-20T05:30:51;14.83;;;5.13;;
59271;SDS011;45043;51.068;7.026;2023-12-20T05:33:52;14.93;;;5.77;;
59271;SDS011;45043;51.068;7.026;2023-12-20T05:36:53;15.53;;;5.23;;
59271;SDS011;45043;51.068;7.026;2023-12-20T05:39:54;13.67;;;5.37;;
59271;SDS011;45043;51.068;7.026;2023-12-20T05:42:55;20.97;;;5.57;;
59271;SDS011;45043;51.068;7.026;2023-12-20T05:45:56;17.53;;;6.10;;
59271;SDS011;45043;51.068;7.026;2023-12-20T05:48:58;14.03;;;5.27;;
59271;SDS011;45043;51.068;7.026;2023-12-20T05:51:59;11.67;;;5.40;;
59271;SDS011;45043;51.068;7.026;2023-12-20T05:55:01;16.40;;;4.90;;
59271;SDS011;45043;51.068;7.026;2023-12-20T05:58:02;14.13;;;5.00;;
59271;SDS011;45043;51.068;7.026;2023-12-20T06:01:04;15.17;;;4.87;;
59271;SDS011;45043;51.068;7.026;2023-12-20T06:04:05;14.57;;;5.43;;
59271;SDS011;45043;51.068;7.026;2023-12-20T06:07:06;12.53;;;5.00;;
59271;SDS011;45043;51.068;7.026;2023-12-20T06:10:07;12.57;;;5.20;;
59271;SDS011;45043;51.068;7.026;2023-12-20T06:13:09;12.57;;;4.60;;
59271;SDS011;45043;51.068;7.026;2023-12-20T06:16:09;11.70;;;4.67;;
59271;SDS011;45043;51.068;7.026;2023-12-20T06:19:10;12.43;;;4.43;;
59271;SDS011;45043;51.068;7.026;2023-12-20T06:22:11;13.93;;;5.10;;
59271;SDS011;45043;51.068;7.026;2023-12-20T06:25:12;11.27;;;4.53;;
59271;SDS011;45043;51.068;7.026;2023-12-20T06:28:13;12.63;;;4.60;;
59271;SDS011;45043;51.068;7.026;2023-12-20T06:31:17;12.23;;;4.40;;
59271;SDS011;45043;51.068;7.026;2023-12-20T06:34:19;9.80;;;4.07;;
59271;SDS011;45043;51.068;7.026;2023-12-20T06:37:19;11.37;;;4.00;;
59271;SDS011;45043;51.068;7.026;2023-12-20T06:40:20;14.37;;;4.40;;
59271;SDS011;45043;51.068;7.026;2023-12-20T06:43:21;14.33;;;4.60;;
59271;SDS011;45043;51.068;7.026;2023-12-20T06:46:21;10.57;;;4.60;;
59271;SDS011;45043;51.068;7.026;2023-12-20T06:49:22;16.33;;;4.63;;
59271;SDS011;45043;51.068;7.026;2023-12-20T06:52:23;13.00;;;4.40;;
59271;SDS011;45043;51.068;7.026;2023-12-20T06:55:23;11.77;;;4.10;;
59271;SDS011;45043;51.068;7.026;2023-12-20T06:58:24;14.70;;;4.63;;
59271;SDS011;45043;51.068;7.026;2023-12-20T07:01:25;9.50;;;4.67;;
59271;SDS011;45043;51.068;7.026;2023-12-20T07:04:27;15.00;;;4.80;;
59271;SDS011;45043;51.068;7.026;2023-12-20T07:07:28;16.97;;;5.40;;
59271;SDS011;45043;51.068;7.026;2023-12-20T07:10:29;15.43;;;4.40;;
59271;SDS011;45043;51.068;7.026;2023-12-20T07:13:30;13.03;;;5.17;;
59271;SDS011;45043;51.068;7.026;2023-12-20T07:16:31;17.80;;;5.03;;
59271;SDS011;45043;51.068;7.026;2023-12-20T07:19:32;12.97;;;4.50;;
59271;SDS011;45043;51.068;7.026;2023-12-20T07:22:33;13.37;;;4.53;;
59271;SDS011;45043;51.068;7.026;2023-12-20T07:25:34;13.30;;;4.50;;
59271;SDS011;45043;51.068;7.026;2023-12-20T07:28:35;12.83;;;4.27;;
59271;SDS011;45043;51.068;7.026;2023-12-20T07:31:36;11.63;;;4.27;;
59271;SDS011;45043;51.068;7.026;2023-12-20T07:34:37;14.27;;;4.47;;
59271;SDS011;45043;51.068;7.026;2023-12-20T07:37:39;14.30;;;4.73;;
59271;SDS011;45043;51.068;7.026;2023-12-20T07:40:40;13.83;;;4.70;;
59271;SDS011;45043;51.068;7.026;2023-12-20T07:43:42;17.20;;;4.23;;
59271;SDS011;45043;51.068;7.026;2023-12-20T07:50:03;14.50;;;4.47;;
59271;SDS011;45043;51.068;7.026;2023-12-20T07:53:04;14.07;;;4.93;;
59271;SDS011;45043;51.068;7.026;2023-12-20T07:56:18;12.00;;;4.67;;
59271;SDS011;45043;51.068;7.026;2023-12-20T07:59:20;15.77;;;5.73;;
59271;SDS011;45043;51.068;7.026;2023-12-20T08:02:20;15.73;;;5.07;;
59271;SDS011;45043;51.068;7.026;2023-12-20T08:05:21;14.57;;;5.00;;
59271;SDS011;45043;51.068;7.026;2023-12-20T08:08:22;11.33;;;4.97;;
59271;SDS011;45043;51.068;7.026;2023-12-20T08:11:27;13.37;;;5.00;;
59271;SDS011;45043;51.068;7.026;2023-12-20T08:14:28;17.47;;;5.40;;
59271;SDS011;45043;51.068;7.026;2023-12-20T08:17:29;11.50;;;4.67;;
59271;SDS011;45043;51.068;7.026;2023-12-20T08:20:31;16.00;;;5.60;;
59271;SDS011;45043;51.068;7.026;2023-12-20T08:23:32;13.87;;;5.07;;
59271;SDS011;45043;51.068;7.026;2023-12-20T08:26:33;14.73;;;5.97;;
59271;SDS011;45043;51.068;7.026;2023-12-20T08:29:33;15.57;;;5.33;;
59271;SDS011;45043;51.068;7.026;2023-12-20T08:32:35;14.27;;;5.20;;
59271;SDS011;45043;51.068;7.026;2023-12-20T08:35:36;12.53;;;4.37;;
59271;SDS011;45043;51.068;7.026;2023-12-20T08:38:37;14.17;;;4.23;;
59271;SDS011;45043;51.068;7.026;2023-12-20T08:41:38;15.53;;;4.60;;
59271;SDS011;45043;51.068;7.026;2023-12-20T08:44:39;14.13;;;5.27;;
59271;SDS011;45043;51.068;7.026;2023-12-20T08:47:40;20.30;;;6.30;;
59271;SDS011;45043;51.068;7.026;2023-12-20T08:50:41;19.30;;;5.63;;
59271;SDS011;45043;51.068;7.026;2023-12-20T08:53:43;16.60;;;5.33;;
59271;SDS011;45043;51.068;7.026;2023-12-20T08:56:45;21.83;;;5.57;;
59271;SDS011;45043;51.068;7.026;2023-12-20T08:59:47;16.97;;;5.90;;
59271;SDS011;45043;51.068;7.026;2023-12-20T09:02:48;16.37;;;5.60;;
59271;SDS011;45043;51.068;7.026;2023-12-20T09:05:48;17.23;;;6.07;;
59271;SDS011;45043;51.068;7.026;2023-12-20T09:08:49;16.27;;;5.53;;
59271;SDS011;45043;51.068;7.026;2023-12-20T09:11:50;15.50;;;5.37;;
59271;SDS011;45043;51.068;7.026;2023-12-20T09:14:52;22.27;;;6.50;;
59271;SDS011;45043;51.068;7.026;2023-12-20T09:17:53;17.67;;;6.00;;
59271;SDS011;45043;51.068;7.026;2023-12-20T09:20:54;18.23;;;5.60;;
59271;SDS011;45043;51.068;7.026;2023-12-20T09:23:55;15.80;;;5.07;;
59271;SDS011;45043;51.068;7.026;2023-12-20T09:26:57;17.23;;;5.37;;
59271;SDS011;45043;51.068;7.026;2023-12-20T09:29:58;19.13;;;6.30;;
59271;SDS011;45043;51.068;7.026;2023-12-20T09:32:58;17.23;;;5.60;;
59271;SDS011;45043;51.068;7.026;2023-12-20T09:35:59;14.27;;;4.90;;
59271;SDS011;45043;51.068;7.026;2023-12-20T09:39:00;16.97;;;5.27;;
59271;SDS011;45043;51.068;7.026;2023-12-20T09:42:05;19.23;;;5.47;;
59271;SDS011;45043;51.068;7.026;2023-12-20T09:45:09;17.40;;;5.37;;
59271;SDS011;45043;51.068;7.026;2023-12-20T09:48:14;19.17;;;5.90;;
59271;SDS011;45043;51.068;7.026;2023-12-20T09:51:18;13.67;;;5.50;;
59271;SDS011;45043;51.068;7.026;2023-12-20T09:54:21;16.77;;;5.53;;
59271;SDS011;45043;51.068;7.026;2023-12-20T09:57:22;16.87;;;5.37;;
59271;SDS011;45043;51.068;7.026;2023-12-20T10:00:22;14.80;;;4.70;;
59271;SDS011;45043;51.068;7.026;2023-12-20T10:03:24;18.53;;;4.87;;
59271;SDS011;45043;51.068;7.026;2023-12-20T10:06:30;17.57;;;5.87;;
59271;SDS011;45043;51.068;7.026;2023-12-20T10:09:31;11.90;;;4.57;;
59271;SDS011;45043;51.068;7.026;2023-12-20T10:12:34;14.17;;;4.60;;
59271;SDS011;45043;51.068;7.026;2023-12-20T10:15:36;12.03;;;4.30;;
59271;SDS011;45043;51.068;7.026;2023-12-20T10:18:37;16.80;;;5.10;;
59271;SDS011;45043;51.068;7.026;2023-12-20T10:21:39;17.63;;;4.57;;
59271;SDS011;45043;51.068;7.026;2023-12-20T10:24:41;13.53;;;4.50;;
59271;SDS011;45043;51.068;7.026;2023-12-20T10:31:31;15.73;;;4.73;;
59271;SDS011;45043;51.068;7.026;2023-12-20T10:34:32;10.43;;;3.70;;
59271;SDS011;45043;51.068;7.026;2023-12-20T10:37:39;19.27;;;5.33;;
59271;SDS011;45043;51.068;7.026;2023-12-20T10:40:41;13.67;;;4.80;;
59271;SDS011;45043;51.068;7.026;2023-12-20T10:43:43;11.43;;;4.27;;
59271;SDS011;45043;51.068;7.026;2023-12-20T10:46:45;16.50;;;4.90;;
59271;SDS011;45043;51.068;7.026;2023-12-20T10:49:52;11.17;;;4.77;;
59271;SDS011;45043;51.068;7.026;2023-12-20T10:52:53;14.87;;;4.50;;
59271;SDS011;45043;51.068;7.026;2023-12-20T10:55:55;18.23;;;4.83;;
59271;SDS011;45043;51.068;7.026;2023-12-20T10:59:01;18.23;;;4.97;;
59271;SDS011;45043;51.068;7.026;2023-12-20T11:02:05;11.30;;;3.93;;
59271;SDS011;45043;51.068;7.026;2023-12-20T11:05:27;16.20;;;4.83;;
59271;SDS011;45043;51.068;7.026;2023-12-20T11:15:17;14.43;;;4.63;;
59271;SDS011;45043;51.068;7.026;2023-12-20T11:18:18;12.97;;;4.23;;
59271;SDS011;45043;51.068;7.026;2023-12-20T11:21:19;12.97;;;4.20;;
59271;SDS011;45043;51.068;7.026;2023-12-20T11:24:21;10.17;;;4.20;;
59271;SDS011;45043;51.068;7.026;2023-12-20T11:27:25;9.63;;;4.80;;
59271;SDS011;45043;51.068;7.026;2023-12-20T11:30:26;11.57;;;5.20;;
59271;SDS011;45043;51.068;7.026;2023-12-20T11:33:48;11.83;;;5.23;;
59271;SDS011;45043;51.068;7.026;2023-12-20T11:36:49;15.87;;;5.03;;
59271;SDS011;45043;51.068;7.026;2023-12-20T11:40:02;15.30;;;4.23;;
59271;SDS011;45043;51.068;7.026;2023-12-20T11:43:04;14.47;;;4.70;;
59271;SDS011;45043;51.068;7.026;2023-12-20T11:46:08;12.17;;;4.07;;
59271;SDS011;45043;51.068;7.026;2023-12-20T11:49:09;14.50;;;4.80;;
59271;SDS011;45043;51.068;7.026;2023-12-20T11:52:11;14.73;;;4.53;;
59271;SDS011;45043;51.068;7.026;2023-12-20T11:55:13;15.53;;;4.37;;
59271;SDS011;45043;51.068;7.026;2023-12-20T11:58:14;11.20;;;4.40;;
59271;SDS011;45043;51.068;7.026;2023-12-20T12:01:16;15.37;;;4.83;;
59271;SDS011;45043;51.068;7.026;2023-12-20T12:04:17;12.33;;;4.50;;
59271;SDS011;45043;51.068;7.026;2023-12-20T12:07:18;14.53;;;5.10;;
59271;SDS011;45043;51.068;7.026;2023-12-20T12:10:21;14.17;;;4.90;;
59271;SDS011;45043;51.068;7.026;2023-12-20T12:13:23;14.30;;;4.97;;
59271;SDS011;45043;51.068;7.026;2023-12-20T12:16:27;13.57;;;4.33;;
59271;SDS011;45043;51.068;7.026;2023-12-20T12:19:29;17.37;;;4.80;;
59271;SDS011;45043;51.068;7.026;2023-12-20T12:22:36;14.37;;;4.40;;
59271;SDS011;45043;51.068;7.026;2023-12-20T12:25:37;12.90;;;4.73;;
59271;SDS011;45043;51.068;7.026;2023-12-20T12:28:41;14.67;;;4.73;;
59271;SDS011;45043;51.068;7.026;2023-12-20T12:31:43;13.60;;;5.20;;
59271;SDS011;45043;51.068;7.026;2023-12-20T12:34:44;14.33;;;4.80;;
59271;SDS011;45043;51.068;7.026;2023-12-20T12:37:45;14.47;;;5.17;;
59271;SDS011;45043;51.068;7.026;2023-12-20T12:40:46;17.23;;;5.60;;
59271;SDS011;45043;51.068;7.026;2023-12-20T12:43:47;15.97;;;5.23;;
59271;SDS011;45043;51.068;7.026;2023-12-20T12:46:48;16.87;;;5.77;;
59271;SDS011;45043;51.068;7.026;2023-12-20T12:49:51;14.70;;;5.17;;
59271;SDS011;45043;51.068;7.026;2023-12-20T12:52:54;12.70;;;5.20;;
59271;SDS011;45043;51.068;7.026;2023-12-20T12:55:55;14.53;;;5.63;;
59271;SDS011;45043;51.068;7.026;2023-12-20T12:58:56;19.43;;;5.70;;
59271;SDS011;45043;51.068;7.026;2023-12-20T13:01:57;13.90;;;5.17;;
59271;SDS011;45043;51.068;7.026;2023-12-20T13:04:58;14.20;;;5.90;;
59271;SDS011;45043;51.068;7.026;2023-12-20T13:08:01;15.60;;;6.50;;
59271;SDS011;45043;51.068;7.026;2023-12-20T13:11:02;19.50;;;5.87;;
59271;SDS011;45043;51.068;7.026;2023-12-20T13:14:04;14.50;;;5.57;;
59271;SDS011;45043;51.068;7.026;2023-12-20T13:17:05;15.73;;;6.07;;
59271;SDS011;45043;51.068;7.026;2023-12-20T13:20:08;14.37;;;5.83;;
59271;SDS011;45043;51.068;7.026;2023-12-20T13:23:12;16.40;;;6.30;;
59271;SDS011;45043;51.068;7.026;2023-12-20T13:26:12;18.07;;;5.70;;
59271;SDS011;45043;51.068;7.026;2023-12-20T13:29:13;14.70;;;5.63;;
59271;SDS011;45043;51.068;7.026;2023-12-20T13:32:14;12.53;;;6.40;;
59271;SDS011;45043;51.068;7.026;2023-12-20T13:35:15;14.13;;;6.30;;
59271;SDS011;45043;51.068;7.026;2023-12-20T13:38:16;19.97;;;6.13;;
59271;SDS011;45043;51.068;7.026;2023-12-20T13:41:17;14.40;;;6.03;;
59271;SDS011;45043;51.068;7.026;2023-12-20T13:44:18;15.27;;;5.80;;
59271;SDS011;45043;51.068;7.026;2023-12-20T13:47:19;13.70;;;5.47;;
59271;SDS011;45043;51.068;7.026;2023-12-20T13:50:20;11.47;;;6.17;;
59271;SDS011;45043;51.068;7.026;2023-12-20T13:53:20;13.47;;;6.23;;
59271;SDS011;45043;51.068;7.026;2023-12-20T13:56:21;18.53;;;5.40;;
59271;SDS011;45043;51.068;7.026;2023-12-20T13:59:23;11.47;;;5.30;;
59271;SDS011;45043;51.068;7.026;2023-12-20T14:02:24;10.37;;;5.43;;
59271;SDS011;45043;51.068;7.026;2023-12-20T14:05:24;10.13;;;5.40;;
59271;SDS011;45043;51.068;7.026;2023-12-20T14:08:27;14.47;;;5.20;;
59271;SDS011;45043;51.068;7.026;2023-12-20T14:11:28;15.43;;;6.40;;
59271;SDS011;45043;51.068;7.026;2023-12-20T14:14:29;9.40;;;5.43;;
59271;SDS011;45043;51.068;7.026;2023-12-20T14:17:30;9.47;;;4.80;;
59271;SDS011;45043;51.068;7.026;2023-12-20T14:20:32;16.60;;;5.17;;
59271;SDS011;45043;51.068;7.026;2023-12-20T14:23:34;12.90;;;5.17;;
59271;SDS011;45043;51.068;7.026;2023-12-20T14:26:35;12.53;;;5.13;;
59271;SDS011;45043;51.068;7.026;2023-12-20T14:29:37;13.23;;;5.13;;
59271;SDS011;45043;51.068;7.026;2023-12-20T14:32:38;12.07;;;5.30;;
59271;SDS011;45043;51.068;7.026;2023-12-20T14:35:39;15.03;;;6.20;;
59271;SDS011;45043;51.068;7.026;2023-12-20T14:38:41;11.30;;;5.87;;
59271;SDS011;45043;51.068;7.026;2023-12-20T14:41:42;8.80;;;4.97;;
59271;SDS011;45043;51.068;7.026;2023-12-20T14:44:43;17.43;;;6.80;;
59271;SDS011;45043;51.068;7.026;2023-12-20T14:47:44;15.27;;;5.40;;
59271;SDS011;45043;51.068;7.026;2023-12-20T14:50:44;15.17;;;5.57;;
59271;SDS011;45043;51.068;7.026;2023-12-20T14:53:48;14.10;;;5.60;;
59271;SDS011;45043;51.068;7.026;2023-12-20T14:56:49;13.47;;;5.27;;
59271;SDS011;45043;51.068;7.026;2023-12-20T14:59:49;12.00;;;5.30;;
59271;SDS011;45043;51.068;7.026;2023-12-20T15:02:50;15.10;;;5.87;;
59271;SDS011;45043;51.068;7.026;2023-12-20T15:05:51;14.30;;;5.30;;
59271;SDS011;45043;51.068;7.026;2023-12-20T15:08:51;11.97;;;5.33;;
59271;SDS011;45043;51.068;7.026;2023-12-20T15:11:52;11.03;;;5.23;;
59271;SDS011;45043;51.068;7.026;2023-12-20T15:14:53;14.07;;;4.73;;
59271;SDS011;45043;51.068;7.026;2023-12-20T15:17:54;17.63;;;5.73;;
59271;SDS011;45043;51.068;7.026;2023-12-20T15:20:55;12.97;;;5.30;;
59271;SDS011;45043;51.068;7.026;2023-12-20T15:23:56;18.70;;;5.93;;
59271;SDS011;45043;51.068;7.026;2023-12-20T15:27:06;9.90;;;5.20;;
59271;SDS011;45043;51.068;7.026;2023-12-20T15:30:07;12.43;;;4.93;;
59271;SDS011;45043;51.068;7.026;2023-12-20T15:33:10;13.67;;;5.43;;
59271;SDS011;45043;51.068;7.026;2023-12-20T15:36:11;13.33;;;5.87;;
59271;SDS011;45043;51.068;7.026;2023-12-20T15:39:12;13.83;;;5.60;;
59271;SDS011;45043;51.068;7.026;2023-12-20T15:42:14;13.00;;;5.47;;
59271;SDS011;45043;51.068;7.026;2023-12-20T15:45:15;14.37;;;5.50;;
59271;SDS011;45043;51.068;7.026;2023-12-20T15:48:15;15.87;;;6.40;;
59271;SDS011;45043;51.068;7.026;2023-12-20T15:51:20;12.40;;;5.37;;
59271;SDS011;45043;51.068;7.026;2023-12-20T15:54:21;12.30;;;5.30;;
59271;SDS011;45043;51.068;7.026;2023-12-20T15:57:22;13.37;;;5.43;;
59271;SDS011;45043;51.068;7.026;2023-12-20T16:00:23;14.27;;;6.03;;
59271;SDS011;45043;51.068;7.026;2023-12-20T16:03:24;11.90;;;6.17;;
59271;SDS011;45043;51.068;7.026;2023-12-20T16:06:25;13.50;;;6.50;;
59271;SDS011;45043;51.068;7.026;2023-12-20T16:09:27;14.27;;;6.10;;
59271;SDS011;45043;51.068;7.026;2023-12-20T16:12:27;13.27;;;6.50;;
59271;SDS011;45043;51.068;7.026;2023-12-20T16:15:28;15.80;;;6.57;;
59271;SDS011;45043;51.068;7.026;2023-12-20T16:18:29;13.17;;;5.73;;
59271;SDS011;45043;51.068;7.026;2023-12-20T16:21:31;15.73;;;6.17;;
59271;SDS011;45043;51.068;7.026;2023-12-20T16:24:32;15.23;;;6.43;;
59271;SDS011;45043;51.068;7.026;2023-12-20T16:27:36;11.23;;;5.87;;
59271;SDS011;45043;51.068;7.026;2023-12-20T16:30:38;14.73;;;6.37;;
59271;SDS011;45043;51.068;7.026;2023-12-20T16:33:38;12.23;;;6.63;;
59271;SDS011;45043;51.068;7.026;2023-12-20T16:36:52;16.60;;;7.20;;
59271;SDS011;45043;51.068;7.026;2023-12-20T16:39:54;14.23;;;6.50;;
59271;SDS011;45043;51.068;7.026;2023-12-20T16:42:55;18.20;;;6.50;;
59271;SDS011;45043;51.068;7.026;2023-12-20T16:45:56;16.03;;;6.90;;
59271;SDS011;45043;51.068;7.026;2023-12-20T16:48:57;13.80;;;7.43;;
59271;SDS011;45043;51.068;7.026;2023-12-20T16:51:58;13.93;;;6.47;;
59271;SDS011;45043;51.068;7.026;2023-12-20T16:54:59;12.80;;;6.90;;
59271;SDS011;45043;51.068;7.026;2023-12-20T16:58:00;16.83;;;6.87;;
59271;SDS011;45043;51.068;7.026;2023-12-20T17:01:01;19.40;;;7.00;;
59271;SDS011;45043;51.068;7.026;2023-12-20T17:04:02;16.53;;;6.67;;
59271;SDS011;45043;51.068;7.026;2023-12-20T17:07:03;18.10;;;6.93;;
59271;SDS011;45043;51.068;7.026;2023-12-20T17:10:04;18.20;;;7.30;;
59271;SDS011;45043;51.068;7.026;2023-12-20T17:13:06;13.33;;;7.07;;
59271;SDS011;45043;51.068;7.026;2023-12-20T17:16:07;14.60;;;6.90;;
59271;SDS011;45043;51.068;7.026;2023-12-20T17:19:08;13.40;;;6.33;;
59271;SDS011;45043;51.068;7.026;2023-12-20T17:22:09;14.80;;;7.20;;
59271;SDS011;45043;51.068;7.026;2023-12-20T17:25:10;19.77;;;7.07;;
59271;SDS011;45043;51.068;7.026;2023-12-20T17:28:13;17.13;;;6.60;;
59271;SDS011;45043;51.068;7.026;2023-12-20T17:31:14;12.60;;;6.53;;
59271;SDS011;45043;51.068;7.026;2023-12-20T17:34:15;17.33;;;7.17;;
59271;SDS011;45043;51.068;7.026;2023-12-20T17:37:15;14.00;;;6.20;;
59271;SDS011;45043;51.068;7.026;2023-12-20T17:40:20;18.40;;;6.63;;
59271;SDS011;45043;51.068;7.026;2023-12-20T17:43:21;17.07;;;7.40;;
59271;SDS011;45043;51.068;7.026;2023-12-20T17:46:22;15.10;;;6.50;;
59271;SDS011;45043;51.068;7.026;2023-12-20T17:49:23;16.40;;;6.87;;
59271;SDS011;45043;51.068;7.026;2023-12-20T17:52:24;13.40;;;7.13;;
59271;SDS011;45043;51.068;7.026;2023-12-20T17:55:25;14.73;;;7.30;;
59271;SDS011;45043;51.068;7.026;2023-12-20T17:58:26;14.20;;;6.77;;
59271;SDS011;45043;51.068;7.026;2023-12-20T18:01:27;14.37;;;7.40;;
59271;SDS011;45043;51.068;7.026;2023-12-20T18:04:28;17.10;;;6.83;;
59271;SDS011;45043;51.068;7.026;2023-12-20T18:07:29;13.90;;;7.17;;
59271;SDS011;45043;51.068;7.026;2023-12-20T18:10:30;15.87;;;7.27;;
59271;SDS011;45043;51.068;7.026;2023-12-20T18:13:40;16.83;;;6.97;;